Tracer — PHAC — position and weather

sailwx.info

Track history (hours):
 
Tides and Currents Weather Stations Pressure Air Temp Water Temp Dewpoint Dewpoint Depression Visibility Wind Speed Wind Dir Waves Ship Positions

Tracer

Last reported at 2017-Apr-25 12:00 UTC. Time now 2017-Apr-26 07:53 UTC.
Position N 33°24' E 029°48'.

Length 101 m; beam 20 m.

Type: Cargo ship. MMSI: 245949000.

Wind from 320 at 8 knots

Barometer 1019.4 mb
Air temperature 19.0 ° C
Visibility: greater than 10.8 NM
Dewpoint 15.0 ° C

Date/timePositionNaut miles runAvg speedWind from/ knotsBaromVisibWave heightAir tempDewpointWater temp
2017-Apr-25 12:00N 33°24' E 029°48'   320 / 81019.410.8 19.015.0
2017-Apr-22 21:06N 31°15' E 032°18'0 0.0
2017-Apr-22 20:48N 31°15' E 032°18'90 4.2
2017-Apr-21 23:18N 32°09' E 030°53'  
2017-Apr-18 16:43N 44°39' E 012°60'313.8
2017-Apr-18 16:30N 44°42' E 012°58'713.5
2017-Apr-18 16:01N 44°48' E 012°54'713.0
2017-Apr-18 15:30N 44°54' E 012°50'612.7
2017-Apr-18 14:59N 44°60' E 012°47'612.6
2017-Apr-18 14:31N 45°05' E 012°43'1110.9
2017-Apr-18 13:31N 45°12' E 012°31'510.5
2017-Apr-18 13:00N 45°16' E 012°27'5 9.2
2017-Apr-18 12:31N 45°20' E 012°22'5 9.9
2017-Apr-18 12:01N 45°21' E 012°15'5 9.4
2017-Apr-18 11:31N 45°26' E 012°16'2 3.2
2017-Apr-18 11:01N 45°28' E 012°15'0 0.0
2017-Apr-18 10:22N 45°28' E 012°15'0 0.0
2017-Apr-18 09:58N 45°28' E 012°15'0 0.0
2017-Apr-18 09:25N 45°28' E 012°15'0 0.0
2017-Apr-18 08:58N 45°28' E 012°15'0 0.0
2017-Apr-18 08:28N 45°28' E 012°15'0 0.0
2017-Apr-18 07:58N 45°28' E 012°15'0 0.0
2017-Apr-18 07:19N 45°28' E 012°15'0 0.0
2017-Apr-18 06:56N 45°28' E 012°15'0 0.0
2017-Apr-18 06:28N 45°28' E 012°15'0 0.0
2017-Apr-18 05:58N 45°28' E 012°15'0 0.0
2017-Apr-18 05:22N 45°28' E 012°15'0 0.0
2017-Apr-18 04:58N 45°28' E 012°15'0 0.0
2017-Apr-18 04:28N 45°28' E 012°15'0 0.0
2017-Apr-18 03:55N 45°28' E 012°15'0 0.0
2017-Apr-18 03:25N 45°28' E 012°15'0 0.0
2017-Apr-18 02:55N 45°28' E 012°15'0 0.0
2017-Apr-18 02:28N 45°28' E 012°15'0 0.0
2017-Apr-18 01:55N 45°28' E 012°15'0 0.0
2017-Apr-18 01:28N 45°28' E 012°15'0 0.0
2017-Apr-18 00:58N 45°28' E 012°15'0 0.0
2017-Apr-18 00:28N 45°28' E 012°15'0 0.0
2017-Apr-17 23:58N 45°28' E 012°15'0 0.0
2017-Apr-17 23:25N 45°28' E 012°15'0 0.0
2017-Apr-17 22:55N 45°28' E 012°15'0 0.0
2017-Apr-17 22:28N 45°28' E 012°15'0 0.0
2017-Apr-17 21:55N 45°28' E 012°15'0 0.0
2017-Apr-17 21:25N 45°28' E 012°15'0 0.0
2017-Apr-17 20:58N 45°28' E 012°15'0 0.0
2017-Apr-17 20:28N 45°28' E 012°15'0 0.0
2017-Apr-17 19:58N 45°28' E 012°15'0 0.0
2017-Apr-17 19:28N 45°28' E 012°15'0 0.0
2017-Apr-17 18:58N 45°28' E 012°15'0 0.0
2017-Apr-17 18:28N 45°28' E 012°15'0 0.0
2017-Apr-17 17:58N 45°28' E 012°15'0 0.0
2017-Apr-17 17:28N 45°28' E 012°15'0 0.0
2017-Apr-17 16:55N 45°28' E 012°15'0 0.0
2017-Apr-17 16:28N 45°28' E 012°15'0 0.0
2017-Apr-17 15:58N 45°28' E 012°15'0 0.0
2017-Apr-17 15:28N 45°28' E 012°15'0 0.0
2017-Apr-17 14:58N 45°28' E 012°15'0 0.0
2017-Apr-17 14:28N 45°28' E 012°15'0 0.0
2017-Apr-17 13:25N 45°28' E 012°15'0 0.0
2017-Apr-17 12:58N 45°28' E 012°15'0 0.0
2017-Apr-17 12:25N 45°28' E 012°15'0 0.0
2017-Apr-17 11:58N 45°28' E 012°15'0 0.0
2017-Apr-17 11:19N 45°28' E 012°15'0 0.0
2017-Apr-17 10:58N 45°28' E 012°15'0 0.0
2017-Apr-17 10:19N 45°28' E 012°15'0 0.0
2017-Apr-17 09:58N 45°28' E 012°15'0 0.0
2017-Apr-17 09:28N 45°28' E 012°15'0 0.0
2017-Apr-17 08:52N 45°28' E 012°15'0 0.0
2017-Apr-17 08:25N 45°28' E 012°15'0 0.0
2017-Apr-17 07:58N 45°28' E 012°15'0 0.0
2017-Apr-17 07:28N 45°28' E 012°15'0 0.0
2017-Apr-17 06:55N 45°28' E 012°15'0 0.0
2017-Apr-17 05:52N 45°28' E 012°15'0 0.0
2017-Apr-17 05:28N 45°28' E 012°15'0 0.0
2017-Apr-17 04:58N 45°28' E 012°15'0 0.0
2017-Apr-17 04:22N 45°28' E 012°15'0 0.0
2017-Apr-17 03:58N 45°28' E 012°15'0 0.0
2017-Apr-17 03:28N 45°28' E 012°15'0 0.0
2017-Apr-17 02:58N 45°28' E 012°15'0 0.0
2017-Apr-17 02:22N 45°28' E 012°15'0 0.0
2017-Apr-17 01:52N 45°28' E 012°15'0 0.0
2017-Apr-17 01:27N 45°28' E 012°15'0 0.0
2017-Apr-17 00:57N 45°28' E 012°15'0 0.0
2017-Apr-17 00:31N 45°28' E 012°15'0 0.0
2017-Apr-16 23:57N 45°28' E 012°15'0 0.0
2017-Apr-16 23:21N 45°28' E 012°15'0 0.0
2017-Apr-16 23:00N 45°28' E 012°15'0 0.0
2017-Apr-16 22:27N 45°28' E 012°15'0 0.0
2017-Apr-16 21:57N 45°28' E 012°15'0 0.0
2017-Apr-16 21:21N 45°28' E 012°15'0 0.0
2017-Apr-16 21:00N 45°28' E 012°15'0 0.0
2017-Apr-16 20:28N 45°28' E 012°15'0 0.0
2017-Apr-16 19:57N 45°28' E 012°15'0 0.0
2017-Apr-16 19:06N 45°28' E 012°15'0 0.0
2017-Apr-16 19:00N 45°28' E 012°15'0 0.0
2017-Apr-16 18:30N 45°28' E 012°15'0 0.0
2017-Apr-16 18:00N 45°28' E 012°15'0 0.0
2017-Apr-16 16:45N 45°28' E 012°15'0 0.0
2017-Apr-16 16:09N 45°28' E 012°15'0 0.0
2017-Apr-16 15:45N 45°28' E 012°15'0 0.0
2017-Apr-16 15:30N 45°28' E 012°15'0 0.0
2017-Apr-16 15:00N 45°28' E 012°15'0 0.0
2017-Apr-16 13:00N 45°28' E 012°15'0 0.0
2017-Apr-16 12:30N 45°28' E 012°15'0 0.0
2017-Apr-16 11:54N 45°28' E 012°15'0 0.0
2017-Apr-16 11:27N 45°28' E 012°15'0 0.0
2017-Apr-16 11:00N 45°28' E 012°15'0 0.0
2017-Apr-16 10:27N 45°28' E 012°15'0 0.0
2017-Apr-16 09:48N 45°28' E 012°15'0 0.0
2017-Apr-16 07:18N 45°28' E 012°15'0 0.0
2017-Apr-16 07:00N 45°28' E 012°15'0 0.0
2017-Apr-16 06:30N 45°28' E 012°15'0 0.0
2017-Apr-16 06:00N 45°28' E 012°15'0 0.0
2017-Apr-16 05:27N 45°28' E 012°15'0 0.0
2017-Apr-16 04:51N 45°28' E 012°15'0 0.0
2017-Apr-16 04:30N 45°28' E 012°15'0 0.0
2017-Apr-16 03:57N 45°28' E 012°15'0 0.0
2017-Apr-16 03:30N 45°28' E 012°15'0 0.0
2017-Apr-16 02:57N 45°28' E 012°15'0 0.0
2017-Apr-16 02:30N 45°28' E 012°15'0 0.0
2017-Apr-16 01:57N 45°28' E 012°15'0 0.0
2017-Apr-16 01:27N 45°28' E 012°15'0 0.0
2017-Apr-16 01:00N 45°28' E 012°15'0 0.0
2017-Apr-16 00:30N 45°28' E 012°15'0 0.0
2017-Apr-15 23:39N 45°28' E 012°15'0 0.0
2017-Apr-15 23:30N 45°28' E 012°15'0 0.0
2017-Apr-15 22:57N 45°28' E 012°15'0 0.0
2017-Apr-15 22:27N 45°28' E 012°15'0 0.0
2017-Apr-15 22:00N 45°28' E 012°15'0 0.0
2017-Apr-15 21:30N 45°28' E 012°15'0 0.0
2017-Apr-15 21:00N 45°28' E 012°15'0 0.0
2017-Apr-15 20:30N 45°28' E 012°15'0 0.0
2017-Apr-15 20:00N 45°28' E 012°15'0 0.0
2017-Apr-15 19:24N 45°28' E 012°15'0 0.0
2017-Apr-15 18:51N 45°28' E 012°15'0 0.0
2017-Apr-15 18:30N 45°28' E 012°15'0 0.0
2017-Apr-15 18:00N 45°28' E 012°15'0 0.0
2017-Apr-15 17:30N 45°28' E 012°15'0 0.0
2017-Apr-15 17:00N 45°28' E 012°15'0 0.0
2017-Apr-15 16:29N 45°28' E 012°15'0 0.0
2017-Apr-15 15:51N 45°28' E 012°15'0 0.0
2017-Apr-15 15:30N 45°28' E 012°15'0 0.0
2017-Apr-15 14:59N 45°28' E 012°15'0 0.0
2017-Apr-15 14:29N 45°28' E 012°15'0 0.0
2017-Apr-15 13:29N 45°28' E 012°15'0 0.0
2017-Apr-15 12:59N 45°28' E 012°15'0 0.0
2017-Apr-15 12:29N 45°28' E 012°15'  
Track history (hours):
 
Tides and Currents Weather Stations Pressure Air Temp Water Temp Dewpoint Dewpoint Depression Visibility Wind Speed Wind Dir Waves Ship Positions

Tracer

Last reported at 2017-Apr-25 12:00 UTC. Time now 2017-Apr-26 07:53 UTC.
Position N 33°24' E 029°48'.

Length 101 m; beam 20 m.

Type: Cargo ship. MMSI: 245949000.

Wind from 320 at 8 knots

Barometer 1019.4 mb
Air temperature 19.0 ° C
Visibility: greater than 10.8 NM
Dewpoint 15.0 ° C

Date/timePositionNaut miles runAvg speedWind from/ knotsBaromVisibWave heightAir tempDewpointWater temp
2017-Apr-25 12:00N 33°24' E 029°48'   320 / 81019.410.8 19.015.0
2017-Apr-22 21:06N 31°15' E 032°18'0 0.0
2017-Apr-22 20:48N 31°15' E 032°18'90 4.2
2017-Apr-21 23:18N 32°09' E 030°53'  
2017-Apr-18 16:43N 44°39' E 012°60'313.8
2017-Apr-18 16:30N 44°42' E 012°58'713.5
2017-Apr-18 16:01N 44°48' E 012°54'713.0
2017-Apr-18 15:30N 44°54' E 012°50'612.7
2017-Apr-18 14:59N 44°60' E 012°47'612.6
2017-Apr-18 14:31N 45°05' E 012°43'1110.9
2017-Apr-18 13:31N 45°12' E 012°31'510.5
2017-Apr-18 13:00N 45°16' E 012°27'5 9.2
2017-Apr-18 12:31N 45°20' E 012°22'5 9.9
2017-Apr-18 12:01N 45°21' E 012°15'5 9.4
2017-Apr-18 11:31N 45°26' E 012°16'2 3.2
2017-Apr-18 11:01N 45°28' E 012°15'0 0.0
2017-Apr-18 10:22N 45°28' E 012°15'0 0.0
2017-Apr-18 09:58N 45°28' E 012°15'0 0.0
2017-Apr-18 09:25N 45°28' E 012°15'0 0.0
2017-Apr-18 08:58N 45°28' E 012°15'0 0.0
2017-Apr-18 08:28N 45°28' E 012°15'0 0.0
2017-Apr-18 07:58N 45°28' E 012°15'0 0.0
2017-Apr-18 07:19N 45°28' E 012°15'0 0.0
2017-Apr-18 06:56N 45°28' E 012°15'0 0.0
2017-Apr-18 06:28N 45°28' E 012°15'0 0.0
2017-Apr-18 05:58N 45°28' E 012°15'0 0.0
2017-Apr-18 05:22N 45°28' E 012°15'0 0.0
2017-Apr-18 04:58N 45°28' E 012°15'0 0.0
2017-Apr-18 04:28N 45°28' E 012°15'0 0.0
2017-Apr-18 03:55N 45°28' E 012°15'0 0.0
2017-Apr-18 03:25N 45°28' E 012°15'0 0.0
2017-Apr-18 02:55N 45°28' E 012°15'0 0.0
2017-Apr-18 02:28N 45°28' E 012°15'0 0.0
2017-Apr-18 01:55N 45°28' E 012°15'0 0.0
2017-Apr-18 01:28N 45°28' E 012°15'0 0.0
2017-Apr-18 00:58N 45°28' E 012°15'0 0.0
2017-Apr-18 00:28N 45°28' E 012°15'0 0.0
2017-Apr-17 23:58N 45°28' E 012°15'0 0.0
2017-Apr-17 23:25N 45°28' E 012°15'0 0.0
2017-Apr-17 22:55N 45°28' E 012°15'0 0.0
2017-Apr-17 22:28N 45°28' E 012°15'0 0.0
2017-Apr-17 21:55N 45°28' E 012°15'0 0.0
2017-Apr-17 21:25N 45°28' E 012°15'0 0.0
2017-Apr-17 20:58N 45°28' E 012°15'0 0.0
2017-Apr-17 20:28N 45°28' E 012°15'0 0.0
2017-Apr-17 19:58N 45°28' E 012°15'0 0.0
2017-Apr-17 19:28N 45°28' E 012°15'0 0.0
2017-Apr-17 18:58N 45°28' E 012°15'0 0.0
2017-Apr-17 18:28N 45°28' E 012°15'0 0.0
2017-Apr-17 17:58N 45°28' E 012°15'0 0.0
2017-Apr-17 17:28N 45°28' E 012°15'0 0.0
2017-Apr-17 16:55N 45°28' E 012°15'0 0.0
2017-Apr-17 16:28N 45°28' E 012°15'0 0.0
2017-Apr-17 15:58N 45°28' E 012°15'0 0.0
2017-Apr-17 15:28N 45°28' E 012°15'0 0.0
2017-Apr-17 14:58N 45°28' E 012°15'0 0.0
2017-Apr-17 14:28N 45°28' E 012°15'0 0.0
2017-Apr-17 13:25N 45°28' E 012°15'0 0.0
2017-Apr-17 12:58N 45°28' E 012°15'0 0.0
2017-Apr-17 12:25N 45°28' E 012°15'0 0.0
2017-Apr-17 11:58N 45°28' E 012°15'0 0.0
2017-Apr-17 11:19N 45°28' E 012°15'0 0.0
2017-Apr-17 10:58N 45°28' E 012°15'0 0.0
2017-Apr-17 10:19N 45°28' E 012°15'0 0.0
2017-Apr-17 09:58N 45°28' E 012°15'0 0.0
2017-Apr-17 09:28N 45°28' E 012°15'0 0.0
2017-Apr-17 08:52N 45°28' E 012°15'0 0.0
2017-Apr-17 08:25N 45°28' E 012°15'0 0.0
2017-Apr-17 07:58N 45°28' E 012°15'0 0.0
2017-Apr-17 07:28N 45°28' E 012°15'0 0.0
2017-Apr-17 06:55N 45°28' E 012°15'0 0.0
2017-Apr-17 05:52N 45°28' E 012°15'0 0.0
2017-Apr-17 05:28N 45°28' E 012°15'0 0.0
2017-Apr-17 04:58N 45°28' E 012°15'0 0.0
2017-Apr-17 04:22N 45°28' E 012°15'0 0.0
2017-Apr-17 03:58N 45°28' E 012°15'0 0.0
2017-Apr-17 03:28N 45°28' E 012°15'0 0.0
2017-Apr-17 02:58N 45°28' E 012°15'0 0.0
2017-Apr-17 02:22N 45°28' E 012°15'0 0.0
2017-Apr-17 01:52N 45°28' E 012°15'0 0.0
2017-Apr-17 01:27N 45°28' E 012°15'0 0.0
2017-Apr-17 00:57N 45°28' E 012°15'0 0.0
2017-Apr-17 00:31N 45°28' E 012°15'0 0.0
2017-Apr-16 23:57N 45°28' E 012°15'0 0.0
2017-Apr-16 23:21N 45°28' E 012°15'0 0.0
2017-Apr-16 23:00N 45°28' E 012°15'0 0.0
2017-Apr-16 22:27N 45°28' E 012°15'0 0.0
2017-Apr-16 21:57N 45°28' E 012°15'0 0.0
2017-Apr-16 21:21N 45°28' E 012°15'0 0.0
2017-Apr-16 21:00N 45°28' E 012°15'0 0.0
2017-Apr-16 20:28N 45°28' E 012°15'0 0.0
2017-Apr-16 19:57N 45°28' E 012°15'0 0.0
2017-Apr-16 19:06N 45°28' E 012°15'0 0.0
2017-Apr-16 19:00N 45°28' E 012°15'0 0.0
2017-Apr-16 18:30N 45°28' E 012°15'0 0.0
2017-Apr-16 18:00N 45°28' E 012°15'0 0.0
2017-Apr-16 16:45N 45°28' E 012°15'0 0.0
2017-Apr-16 16:09N 45°28' E 012°15'0 0.0
2017-Apr-16 15:45N 45°28' E 012°15'0 0.0
2017-Apr-16 15:30N 45°28' E 012°15'0 0.0
2017-Apr-16 15:00N 45°28' E 012°15'0 0.0
2017-Apr-16 13:00N 45°28' E 012°15'0 0.0
2017-Apr-16 12:30N 45°28' E 012°15'0 0.0
2017-Apr-16 11:54N 45°28' E 012°15'0 0.0
2017-Apr-16 11:27N 45°28' E 012°15'0 0.0
2017-Apr-16 11:00N 45°28' E 012°15'0 0.0
2017-Apr-16 10:27N 45°28' E 012°15'0 0.0
2017-Apr-16 09:48N 45°28' E 012°15'0 0.0
2017-Apr-16 07:18N 45°28' E 012°15'0 0.0
2017-Apr-16 07:00N 45°28' E 012°15'0 0.0
2017-Apr-16 06:30N 45°28' E 012°15'0 0.0
2017-Apr-16 06:00N 45°28' E 012°15'0 0.0
2017-Apr-16 05:27N 45°28' E 012°15'0 0.0
2017-Apr-16 04:51N 45°28' E 012°15'0 0.0
2017-Apr-16 04:30N 45°28' E 012°15'0 0.0
2017-Apr-16 03:57N 45°28' E 012°15'0 0.0
2017-Apr-16 03:30N 45°28' E 012°15'0 0.0
2017-Apr-16 02:57N 45°28' E 012°15'0 0.0
2017-Apr-16 02:30N 45°28' E 012°15'0 0.0
2017-Apr-16 01:57N 45°28' E 012°15'0 0.0
2017-Apr-16 01:27N 45°28' E 012°15'0 0.0
2017-Apr-16 01:00N 45°28' E 012°15'0 0.0
2017-Apr-16 00:30N 45°28' E 012°15'0 0.0
2017-Apr-15 23:39N 45°28' E 012°15'0 0.0
2017-Apr-15 23:30N 45°28' E 012°15'0 0.0
2017-Apr-15 22:57N 45°28' E 012°15'0 0.0
2017-Apr-15 22:27N 45°28' E 012°15'0 0.0
2017-Apr-15 22:00N 45°28' E 012°15'0 0.0
2017-Apr-15 21:30N 45°28' E 012°15'0 0.0
2017-Apr-15 21:00N 45°28' E 012°15'0 0.0
2017-Apr-15 20:30N 45°28' E 012°15'0 0.0
2017-Apr-15 20:00N 45°28' E 012°15'0 0.0
2017-Apr-15 19:24N 45°28' E 012°15'0 0.0
2017-Apr-15 18:51N 45°28' E 012°15'0 0.0
2017-Apr-15 18:30N 45°28' E 012°15'0 0.0
2017-Apr-15 18:00N 45°28' E 012°15'0 0.0
2017-Apr-15 17:30N 45°28' E 012°15'0 0.0
2017-Apr-15 17:00N 45°28' E 012°15'0 0.0
2017-Apr-15 16:29N 45°28' E 012°15'0 0.0
2017-Apr-15 15:51N 45°28' E 012°15'0 0.0
2017-Apr-15 15:30N 45°28' E 012°15'0 0.0
2017-Apr-15 14:59N 45°28' E 012°15'0 0.0
2017-Apr-15 14:29N 45°28' E 012°15'0 0.0
2017-Apr-15 13:29N 45°28' E 012°15'0 0.0
2017-Apr-15 12:59N 45°28' E 012°15'0 0.0
2017-Apr-15 12:29N 45°28' E 012°15'  

Dump ship's entire track history